createdAt,value
2023-06-12T00:00:03.585Z,543.00
2023-06-12T00:01:03.552Z,542.00
2023-06-12T00:02:03.544Z,549.00
2023-06-12T00:03:03.677Z,568.00
2023-06-12T00:04:03.616Z,574.00
2023-06-12T00:05:03.630Z,559.00
2023-06-12T00:06:03.571Z,556.00
2023-06-12T00:07:03.565Z,557.00
2023-06-12T00:08:03.493Z,577.00
2023-06-12T00:09:03.478Z,627.00
2023-06-12T00:10:03.500Z,654.00
2023-06-12T00:11:03.481Z,703.00
2023-06-12T00:12:03.553Z,732.00
2023-06-12T00:13:03.495Z,761.00
2023-06-12T00:14:03.478Z,791.00
2023-06-12T00:15:03.497Z,801.00
2023-06-12T00:16:03.519Z,744.00
2023-06-12T00:17:03.507Z,681.00
2023-06-12T00:18:03.585Z,671.00
2023-06-12T00:19:03.499Z,740.00
2023-06-12T00:20:03.497Z,729.00
2023-06-12T00:21:03.476Z,717.00
2023-06-12T00:22:03.514Z,740.00
2023-06-12T00:23:03.443Z,793.00
2023-06-12T00:24:03.437Z,784.00
2023-06-12T00:25:03.376Z,805.00
2023-06-12T00:26:03.374Z,800.00
2023-06-12T00:27:03.390Z,821.00
2023-06-12T00:28:03.353Z,753.00
2023-06-12T00:29:03.394Z,775.00
2023-06-12T00:30:03.450Z,785.00
2023-06-12T00:31:03.503Z,810.00
2023-06-12T00:32:03.652Z,803.00
2023-06-12T00:33:03.677Z,776.00
2023-06-12T00:34:03.553Z,762.00
2023-06-12T00:35:03.626Z,754.00
2023-06-12T00:36:03.631Z,787.00
2023-06-12T00:37:03.631Z,753.00
2023-06-12T00:38:03.659Z,770.00
2023-06-12T00:39:03.677Z,758.00
2023-06-12T00:40:03.743Z,810.00
2023-06-12T00:41:03.833Z,802.00
2023-06-12T00:42:03.762Z,785.00
2023-06-12T00:43:03.812Z,791.00
2023-06-12T00:44:03.844Z,788.00
2023-06-12T00:45:03.856Z,762.00
2023-06-12T00:46:04.024Z,744.00
2023-06-12T00:47:03.925Z,761.00
2023-06-12T00:48:04.043Z,755.00
2023-06-12T00:49:03.964Z,736.00
2023-06-12T00:50:04.010Z,715.00
2023-06-12T00:51:04.030Z,764.00
2023-06-12T00:52:04.070Z,781.00
2023-06-12T00:53:04.083Z,761.00
2023-06-12T00:54:04.115Z,801.00
2023-06-12T00:55:04.121Z,736.00
2023-06-12T00:56:04.090Z,721.00
2023-06-12T00:57:04.094Z,697.00
2023-06-12T00:58:04.101Z,692.00
2023-06-12T00:59:04.110Z,664.00
2023-06-12T01:00:04.086Z,714.00
2023-06-12T01:01:04.113Z,710.00
2023-06-12T01:02:04.208Z,718.00
2023-06-12T01:03:04.302Z,725.00
2023-06-12T01:04:04.199Z,683.00
2023-06-12T01:05:04.244Z,699.00
2023-06-12T01:06:04.293Z,739.00
2023-06-12T01:07:04.305Z,709.00
2023-06-12T01:08:04.351Z,686.00
2023-06-12T01:09:04.409Z,689.00
2023-06-12T01:10:04.434Z,682.00
2023-06-12T01:11:04.478Z,682.00
2023-06-12T01:12:04.492Z,699.00
2023-06-12T01:13:04.526Z,664.00
2023-06-12T01:14:04.564Z,670.00
2023-06-12T01:15:04.615Z,665.00
2023-06-12T01:16:04.656Z,685.00
2023-06-12T01:17:04.731Z,702.00
2023-06-12T01:18:04.731Z,721.00
2023-06-12T01:19:04.764Z,728.00
2023-06-12T01:20:04.787Z,726.00
2023-06-12T01:21:04.859Z,704.00
2023-06-12T01:22:04.873Z,742.00
2023-06-12T01:23:04.918Z,753.00
2023-06-12T01:24:05.005Z,739.00
2023-06-12T01:25:04.972Z,739.00
2023-06-12T01:26:04.986Z,765.00
2023-06-12T01:27:04.967Z,731.00
2023-06-12T01:28:05.018Z,738.00
2023-06-12T01:29:05.044Z,724.00
2023-06-12T01:30:05.094Z,706.00
2023-06-12T01:31:05.141Z,732.00
2023-06-12T01:32:05.189Z,704.00
2023-06-12T01:33:05.265Z,765.00
2023-06-12T01:34:05.238Z,715.00
2023-06-12T01:35:05.308Z,734.00
2023-06-12T01:36:05.337Z,710.00
2023-06-12T01:37:05.354Z,693.00
2023-06-12T01:38:05.402Z,680.00
2023-06-12T01:39:05.456Z,703.00
2023-06-12T01:40:05.586Z,711.00
2023-06-12T01:41:05.527Z,702.00
2023-06-12T01:42:05.576Z,742.00
2023-06-12T01:43:05.605Z,723.00
2023-06-12T01:44:05.634Z,724.00
2023-06-12T01:45:05.684Z,701.00
2023-06-12T01:46:05.741Z,699.00
2023-06-12T01:47:05.786Z,705.00
2023-06-12T01:48:05.827Z,700.00
2023-06-12T01:49:05.844Z,682.00
2023-06-12T01:50:05.879Z,662.00
2023-06-12T01:51:05.904Z,724.00
2023-06-12T01:52:05.970Z,653.00
2023-06-12T01:53:06.001Z,662.00
2023-06-12T01:54:06.027Z,660.00
2023-06-12T01:55:06.031Z,653.00
2023-06-12T01:56:06.010Z,650.00
2023-06-12T01:57:06.028Z,638.00
2023-06-12T01:58:06.035Z,641.00
2023-06-12T01:59:06.063Z,655.00
2023-06-12T02:00:06.134Z,654.00
2023-06-12T02:01:06.132Z,651.00
2023-06-12T02:02:06.335Z,645.00
2023-06-12T02:03:06.253Z,643.00
2023-06-12T02:04:06.273Z,647.00
2023-06-12T02:05:06.300Z,649.00
2023-06-12T02:06:06.369Z,645.00
2023-06-12T02:07:06.408Z,644.00
2023-06-12T02:08:06.462Z,650.00
2023-06-12T02:09:06.496Z,632.00
2023-06-12T02:10:06.549Z,639.00
2023-06-12T02:11:06.591Z,649.00
2023-06-12T02:12:06.640Z,624.00
2023-06-12T02:13:06.692Z,624.00
2023-06-12T02:14:06.728Z,637.00
2023-06-12T02:15:06.789Z,634.00
2023-06-12T02:16:06.843Z,632.00
2023-06-12T02:17:06.960Z,637.00
2023-06-12T02:18:06.946Z,640.00
2023-06-12T02:19:06.985Z,638.00
2023-06-12T02:20:07.020Z,656.00
2023-06-12T02:21:07.088Z,641.00
2023-06-12T02:22:07.132Z,645.00
2023-06-12T02:23:07.184Z,657.00
2023-06-12T02:24:07.280Z,660.00
2023-06-12T02:25:07.246Z,642.00
2023-06-12T02:26:07.314Z,650.00
2023-06-12T02:27:07.342Z,640.00
2023-06-12T02:28:07.402Z,630.00
2023-06-12T02:29:07.442Z,626.00
2023-06-12T02:30:07.503Z,616.00
2023-06-12T02:31:07.528Z,588.00
2023-06-12T02:32:07.602Z,589.00
2023-06-12T02:33:07.653Z,604.00
2023-06-12T02:34:07.661Z,596.00
2023-06-12T02:35:07.704Z,602.00
2023-06-12T02:36:07.768Z,606.00
2023-06-12T02:37:09.582Z,597.00
2023-06-12T02:38:07.802Z,597.00
2023-06-12T02:39:07.769Z,598.00
2023-06-12T02:40:07.777Z,602.00
2023-06-12T02:41:07.769Z,593.00
2023-06-12T02:42:07.761Z,605.00
2023-06-12T02:43:07.759Z,616.00
2023-06-12T02:44:07.747Z,617.00
2023-06-12T02:45:07.743Z,618.00
2023-06-12T02:46:07.752Z,631.00
2023-06-12T02:47:07.713Z,621.00
2023-06-12T02:48:07.797Z,612.00
2023-06-12T02:49:07.719Z,613.00
2023-06-12T02:50:07.697Z,601.00
2023-06-12T02:51:07.691Z,595.00
2023-06-12T02:52:07.695Z,606.00
2023-06-12T02:53:07.695Z,614.00
2023-06-12T02:54:07.728Z,619.00
2023-06-12T02:55:07.676Z,615.00
2023-06-12T02:56:07.658Z,631.00
2023-06-12T02:57:07.715Z,636.00
2023-06-12T02:58:07.659Z,643.00
2023-06-12T02:59:09.036Z,641.00
2023-06-12T03:00:07.644Z,648.00
2023-06-12T03:01:07.630Z,650.00
2023-06-12T03:02:07.658Z,650.00
2023-06-12T03:03:07.730Z,650.00
2023-06-12T03:04:07.657Z,644.00
2023-06-12T03:05:07.638Z,629.00
2023-06-12T03:06:07.640Z,634.00
2023-06-12T03:07:07.604Z,644.00
2023-06-12T03:08:07.603Z,644.00
2023-06-12T03:09:07.597Z,646.00
2023-06-12T03:10:07.610Z,654.00
2023-06-12T03:11:07.618Z,640.00
2023-06-12T03:12:07.651Z,644.00
2023-06-12T03:13:07.717Z,635.00
2023-06-12T03:14:07.751Z,638.00
2023-06-12T03:15:07.802Z,633.00
2023-06-12T03:16:07.952Z,631.00
2023-06-12T03:17:07.920Z,633.00
2023-06-12T03:18:08.065Z,629.00
2023-06-12T03:19:08.012Z,633.00
2023-06-12T03:20:08.097Z,646.00
2023-06-12T03:21:08.146Z,647.00
2023-06-12T03:22:08.162Z,647.00
2023-06-12T03:23:08.234Z,643.00
2023-06-12T03:24:08.308Z,637.00
2023-06-12T03:25:08.322Z,641.00
2023-06-12T03:26:08.358Z,637.00
2023-06-12T03:27:08.422Z,632.00
2023-06-12T03:28:08.494Z,637.00
2023-06-12T03:29:08.534Z,646.00
2023-06-12T03:30:08.571Z,639.00
2023-06-12T03:31:08.721Z,639.00
2023-06-12T03:32:08.676Z,646.00
2023-06-12T03:33:08.783Z,659.00
2023-06-12T03:34:08.788Z,694.00
2023-06-12T03:35:08.832Z,727.00
2023-06-12T03:36:08.876Z,788.00
2023-06-12T03:37:08.954Z,810.00
2023-06-12T03:38:08.983Z,849.00
2023-06-12T03:39:09.030Z,849.00
2023-06-12T03:40:09.144Z,870.00
2023-06-12T03:41:09.163Z,889.00
2023-06-12T03:42:09.210Z,925.00
2023-06-12T03:43:09.256Z,945.00
2023-06-12T03:44:09.303Z,947.00
2023-06-12T03:45:09.365Z,946.00
2023-06-12T03:46:09.435Z,960.00
2023-06-12T03:47:09.555Z,977.00
2023-06-12T03:48:09.542Z,971.00
2023-06-12T03:49:09.606Z,982.00
2023-06-12T03:50:09.843Z,946.00
2023-06-12T03:51:09.682Z,955.00
2023-06-12T03:52:09.740Z,981.00
2023-06-12T03:53:09.822Z,990.00
2023-06-12T03:54:09.840Z,999.00
2023-06-12T03:55:09.929Z,1008.00
2023-06-12T03:56:09.962Z,982.00
2023-06-12T03:57:10.027Z,986.00
2023-06-12T03:58:10.061Z,973.00
2023-06-12T03:59:10.137Z,968.00
2023-06-12T04:00:10.212Z,954.00
2023-06-12T04:01:10.127Z,969.00
2023-06-12T04:02:10.191Z,987.00
2023-06-12T04:03:10.318Z,995.00
2023-06-12T04:04:10.246Z,1020.00
2023-06-12T04:05:10.198Z,1073.00
2023-06-12T04:06:10.215Z,1083.00
2023-06-12T04:07:10.214Z,1117.00
2023-06-12T04:08:10.244Z,1123.00
2023-06-12T04:09:10.256Z,1150.00
2023-06-12T04:10:10.908Z,1156.00
2023-06-12T04:11:10.365Z,1157.00
2023-06-12T04:12:10.428Z,1178.00
2023-06-12T04:13:10.494Z,1181.00
2023-06-12T04:14:10.583Z,1175.00
2023-06-12T04:15:10.570Z,1203.00
2023-06-12T04:16:10.692Z,1219.00
2023-06-12T04:17:10.679Z,1199.00
2023-06-12T04:18:10.831Z,1206.00
2023-06-12T04:19:10.799Z,1207.00
2023-06-12T04:20:11.252Z,1221.00
2023-06-12T04:21:10.904Z,1218.00
2023-06-12T04:22:10.936Z,1207.00
2023-06-12T04:23:10.962Z,1187.00
2023-06-12T04:24:11.010Z,1169.00
2023-06-12T04:25:10.978Z,1168.00
2023-06-12T04:26:10.985Z,1189.00
2023-06-12T04:27:11.008Z,1203.00
2023-06-12T04:28:11.011Z,1214.00
2023-06-12T04:29:11.034Z,1252.00
2023-06-12T04:30:11.554Z,1253.00
2023-06-12T04:31:11.118Z,1252.00
2023-06-12T04:32:11.168Z,1231.00
2023-06-12T04:33:11.263Z,1232.00
2023-06-12T04:34:11.274Z,1234.00
2023-06-12T04:35:11.273Z,1228.00
2023-06-12T04:36:11.333Z,1233.00
2023-06-12T04:37:11.388Z,1218.00
2023-06-12T04:38:11.437Z,1189.00
2023-06-12T04:39:11.465Z,1202.00
2023-06-12T04:40:11.872Z,1163.00
2023-06-12T04:41:11.558Z,1142.00
2023-06-12T04:42:11.645Z,1132.00
2023-06-12T04:43:11.673Z,1102.00
2023-06-12T04:44:11.720Z,1118.00
2023-06-12T04:45:11.768Z,1112.00
2023-06-12T04:46:11.796Z,1111.00
2023-06-12T04:47:11.840Z,1124.00
2023-06-12T04:48:11.985Z,1152.00
2023-06-12T04:49:12.008Z,1150.00
2023-06-12T04:50:12.221Z,1160.00
2023-06-12T04:51:12.013Z,1160.00
2023-06-12T04:52:12.050Z,1149.00
2023-06-12T04:53:12.106Z,1160.00
2023-06-12T04:54:12.142Z,1156.00
2023-06-12T04:55:12.181Z,1161.00
2023-06-12T04:56:12.200Z,1171.00
2023-06-12T04:57:12.250Z,1199.00
2023-06-12T04:58:12.273Z,1205.00
2023-06-12T04:59:12.318Z,1200.00
2023-06-12T05:00:12.676Z,1207.00
2023-06-12T05:01:12.497Z,1224.00
2023-06-12T05:02:12.423Z,1194.00
2023-06-12T05:03:12.530Z,1211.00
2023-06-12T05:04:12.500Z,1239.00
2023-06-12T05:05:12.439Z,1349.00
2023-06-12T05:06:12.477Z,1459.00
2023-06-12T05:07:12.495Z,1536.00
2023-06-12T05:08:12.534Z,1598.00
2023-06-12T05:09:12.554Z,1630.00
2023-06-12T05:10:12.758Z,1650.00
2023-06-12T05:11:12.604Z,1682.00
2023-06-12T05:12:12.626Z,1760.00
2023-06-12T05:13:12.642Z,1799.00
2023-06-12T05:14:12.656Z,1858.00
2023-06-12T05:15:12.698Z,1924.00
2023-06-12T05:16:12.816Z,1974.00
2023-06-12T05:17:12.756Z,1925.00
2023-06-12T05:18:12.811Z,1897.00
2023-06-12T05:19:12.772Z,1899.00
2023-06-12T05:20:13.012Z,1868.00
2023-06-12T05:21:12.790Z,1873.00
2023-06-12T05:22:12.806Z,1851.00
2023-06-12T05:23:12.828Z,1857.00
2023-06-12T05:24:12.885Z,1808.00
2023-06-12T05:25:12.872Z,1632.00
2023-06-12T05:26:12.898Z,1256.00
2023-06-12T05:27:12.952Z,1056.00
2023-06-12T05:28:12.956Z,995.00
2023-06-12T05:29:12.938Z,892.00
2023-06-12T05:30:13.171Z,769.00
2023-06-12T05:31:13.081Z,732.00
2023-06-12T05:32:13.086Z,644.00
2023-06-12T05:33:13.165Z,600.00
2023-06-12T05:34:13.159Z,576.00
2023-06-12T05:35:13.213Z,565.00
2023-06-12T05:36:13.281Z,595.00
2023-06-12T05:37:13.312Z,634.00
2023-06-12T05:38:13.722Z,765.00
2023-06-12T05:39:14.847Z,930.00
2023-06-12T05:40:13.564Z,1098.00
2023-06-12T05:41:13.444Z,1250.00
2023-06-12T05:42:13.466Z,1406.00
2023-06-12T05:43:13.743Z,1542.00
2023-06-12T05:44:13.560Z,1712.00
2023-06-12T05:45:13.587Z,1872.00
2023-06-12T05:46:13.605Z,2026.00
2023-06-12T05:47:13.605Z,2148.00
2023-06-12T05:48:13.708Z,2243.00
2023-06-12T05:49:13.680Z,2340.00
2023-06-12T05:50:13.929Z,2421.00
2023-06-12T05:51:13.791Z,2491.00
2023-06-12T05:52:13.853Z,2545.00
2023-06-12T05:53:14.236Z,2577.00
2023-06-12T05:54:13.919Z,2596.00
2023-06-12T05:55:14.169Z,2639.00
2023-06-12T05:56:14.029Z,2648.00
2023-06-12T05:57:13.985Z,2682.00
2023-06-12T05:58:14.024Z,2686.00
2023-06-12T05:59:14.032Z,2700.00
2023-06-12T06:00:14.328Z,2725.00
2023-06-12T06:01:14.029Z,2728.00
2023-06-12T06:02:14.028Z,2746.00
2023-06-12T06:03:14.185Z,2734.00
2023-06-12T06:04:14.114Z,2755.00
2023-06-12T06:05:14.365Z,2634.00
2023-06-12T06:06:14.048Z,2715.00
2023-06-12T06:07:18.492Z,2762.00
2023-06-12T06:08:15.094Z,2763.00
2023-06-12T06:09:14.059Z,2772.00
2023-06-12T06:10:14.042Z,2785.00
2023-06-12T06:11:14.057Z,2822.00
2023-06-12T06:12:14.038Z,2871.00
2023-06-12T06:13:14.036Z,2891.00
2023-06-12T06:14:14.012Z,2907.00
2023-06-12T06:15:14.223Z,2915.00
2023-06-12T06:16:14.148Z,2915.00
2023-06-12T06:17:14.141Z,2915.00
2023-06-12T06:18:14.285Z,2876.00
2023-06-12T06:19:14.229Z,2891.00
2023-06-12T06:20:14.291Z,2889.00
2023-06-12T06:21:14.358Z,2874.00
2023-06-12T06:22:14.389Z,2783.00
2023-06-12T06:23:14.493Z,2840.00
2023-06-12T06:24:14.659Z,2868.00
2023-06-12T06:25:14.891Z,2858.00
2023-06-12T06:26:14.579Z,2809.00
2023-06-12T06:27:14.629Z,2795.00
2023-06-12T06:28:14.658Z,2783.00
2023-06-12T06:29:15.406Z,2801.00
2023-06-12T06:30:14.730Z,2812.00
2023-06-12T06:31:14.865Z,2782.00
2023-06-12T06:32:14.965Z,2658.00
2023-06-12T06:33:14.881Z,2409.00
2023-06-12T06:34:14.911Z,2181.00
2023-06-12T06:35:15.149Z,1859.00
2023-06-12T06:36:15.012Z,1649.00
2023-06-12T06:37:15.111Z,1511.00
2023-06-12T06:38:15.235Z,1481.00
2023-06-12T06:39:15.212Z,1278.00
2023-06-12T06:40:15.276Z,1188.00
2023-06-12T06:41:15.300Z,1127.00
2023-06-12T06:42:15.354Z,959.00
2023-06-12T06:43:15.418Z,1017.00
2023-06-12T06:44:15.472Z,970.00
2023-06-12T06:45:15.666Z,884.00
2023-06-12T06:46:15.590Z,823.00
2023-06-12T06:47:15.617Z,721.00
2023-06-12T06:48:15.712Z,765.00
2023-06-12T06:49:15.735Z,773.00
2023-06-12T06:50:15.790Z,878.00
2023-06-12T06:51:15.845Z,800.00
2023-06-12T06:52:15.924Z,685.00
2023-06-12T06:53:15.984Z,660.00
2023-06-12T06:54:16.039Z,772.00
2023-06-12T06:55:16.117Z,631.00
2023-06-12T06:56:16.182Z,885.00
2023-06-12T06:57:16.241Z,1092.00
2023-06-12T06:58:16.276Z,1219.00
2023-06-12T06:59:16.335Z,1364.00
2023-06-12T07:00:16.375Z,1437.00
2023-06-12T07:01:16.422Z,1519.00
2023-06-12T07:02:16.443Z,1604.00
2023-06-12T07:03:16.577Z,1658.00
2023-06-12T07:04:16.521Z,1722.00
2023-06-12T07:05:16.541Z,1746.00
2023-06-12T07:06:16.545Z,1840.00
2023-06-12T07:07:16.576Z,1935.00
2023-06-12T07:08:16.832Z,2004.00
2023-06-12T07:09:16.618Z,2046.00
2023-06-12T07:10:16.629Z,2144.00
2023-06-12T07:11:16.636Z,2248.00
2023-06-12T07:12:16.665Z,2413.00
2023-06-12T07:13:16.698Z,2530.00
2023-06-12T07:14:16.696Z,2424.00
2023-06-12T07:15:16.717Z,2392.00
2023-06-12T07:16:16.759Z,2252.00
2023-06-12T07:17:16.781Z,2400.00
2023-06-12T07:18:16.769Z,2448.00
2023-06-12T07:19:16.803Z,2444.00
2023-06-12T07:20:16.798Z,2404.00
2023-06-12T07:21:16.844Z,2418.00
2023-06-12T07:22:16.815Z,2407.00
2023-06-12T07:23:16.825Z,2386.00
2023-06-12T07:24:17.001Z,2338.00
2023-06-12T07:25:16.848Z,2367.00
2023-06-12T07:27:16.848Z,2414.00
2023-06-12T07:28:16.839Z,2552.00
2023-06-12T07:29:17.286Z,2100.00
2023-06-12T07:30:16.847Z,1521.00
2023-06-12T07:31:16.897Z,1383.00
2023-06-12T07:32:16.822Z,1255.00
2023-06-12T07:33:16.834Z,1183.00
2023-06-12T07:34:17.273Z,1072.00
2023-06-12T07:35:16.875Z,1139.00
2023-06-12T07:36:16.787Z,1210.00
2023-06-12T07:37:16.811Z,801.00
2023-06-12T07:38:16.802Z,780.00
2023-06-12T07:39:16.820Z,743.00
2023-06-12T07:40:16.781Z,589.00
2023-06-12T07:41:16.756Z,519.00
2023-06-12T07:42:16.749Z,608.00
2023-06-12T07:43:16.758Z,616.00
2023-06-12T07:44:16.761Z,817.00
2023-06-12T07:45:17.107Z,776.00
2023-06-12T07:46:16.748Z,634.00
2023-06-12T07:47:16.738Z,767.00
2023-06-12T07:48:16.817Z,741.00
2023-06-12T07:49:16.719Z,484.00
2023-06-12T07:50:16.764Z,472.00
2023-06-12T07:51:16.708Z,400.00
2023-06-12T07:52:16.690Z,423.00
2023-06-12T07:53:32.463Z,487.00
2023-06-12T07:54:17.681Z,487.00
2023-06-12T07:55:16.674Z,467.00
2023-06-12T07:56:16.689Z,499.00
2023-06-12T07:57:16.670Z,537.00
2023-06-12T07:58:16.654Z,507.00
2023-06-12T07:59:16.656Z,503.00
2023-06-12T08:00:16.665Z,536.00
2023-06-12T08:01:16.628Z,657.00
2023-06-12T08:02:16.708Z,765.00
2023-06-12T08:03:30.318Z,765.00
2023-06-12T08:04:17.652Z,766.00
2023-06-12T08:05:16.818Z,670.00
2023-06-12T08:06:16.808Z,738.00
2023-06-12T08:07:16.600Z,648.00
2023-06-12T08:08:16.793Z,573.00
2023-06-12T08:09:16.607Z,458.00
2023-06-12T08:10:16.584Z,556.00
2023-06-12T08:11:16.620Z,626.00
2023-06-12T08:12:16.583Z,651.00
2023-06-12T08:13:16.578Z,688.00
2023-06-12T08:14:16.562Z,707.00
2023-06-12T08:15:16.554Z,707.00
2023-06-12T08:16:16.609Z,776.00
2023-06-12T08:17:16.653Z,650.00
2023-06-12T08:18:16.556Z,555.00
2023-06-12T08:19:16.523Z,565.00
2023-06-12T08:20:16.529Z,506.00
2023-06-12T08:23:29.074Z,500.00
2023-06-12T08:24:29.044Z,500.00
2023-06-12T08:25:29.133Z,500.00
2023-06-12T08:26:29.255Z,500.00
2023-06-12T08:27:29.201Z,500.00
2023-06-12T08:28:29.573Z,500.00
2023-06-12T08:29:29.258Z,479.00
2023-06-12T08:30:29.250Z,529.00
2023-06-12T08:31:29.519Z,523.00
2023-06-12T08:32:29.386Z,504.00
2023-06-12T08:33:29.585Z,495.00
2023-06-12T08:34:29.282Z,500.00
2023-06-12T08:35:29.294Z,516.00
2023-06-12T08:36:29.311Z,492.00
2023-06-12T08:37:29.311Z,498.00
2023-06-12T08:38:32.196Z,500.00
2023-06-12T08:39:29.353Z,575.00
2023-06-12T08:40:29.402Z,766.00
2023-06-12T08:41:29.316Z,773.00
2023-06-12T08:42:29.312Z,651.00
2023-06-12T08:43:29.419Z,626.00
2023-06-12T08:44:29.297Z,643.00
2023-06-12T08:45:29.594Z,760.00
2023-06-12T08:46:29.343Z,950.00
2023-06-12T08:47:29.337Z,1095.00
2023-06-12T08:48:29.287Z,1288.00
2023-06-12T08:49:29.289Z,1344.00
2023-06-12T08:50:29.255Z,1234.00
2023-06-12T08:51:29.251Z,1113.00
2023-06-12T08:52:29.265Z,1099.00
2023-06-12T08:53:29.587Z,1126.00
2023-06-12T08:54:29.236Z,1067.00
2023-06-12T08:55:29.249Z,685.00
2023-06-12T08:56:29.258Z,641.00
2023-06-12T08:57:29.205Z,612.00
2023-06-12T08:58:29.588Z,635.00
2023-06-12T08:59:29.202Z,635.00
2023-06-12T09:00:29.191Z,661.00
2023-06-12T09:01:29.263Z,671.00
2023-06-12T09:02:29.319Z,805.00
2023-06-12T09:03:29.263Z,889.00
2023-06-12T09:04:29.219Z,866.00
2023-06-12T09:05:29.181Z,679.00
2023-06-12T09:06:29.156Z,628.00
2023-06-12T09:07:29.164Z,657.00
2023-06-12T09:08:29.583Z,776.00
2023-06-12T09:09:29.156Z,645.00
2023-06-12T09:10:29.146Z,644.00
2023-06-12T09:11:29.124Z,628.00
2023-06-12T09:12:29.130Z,543.00
2023-06-12T09:13:29.599Z,488.00
2023-06-12T09:14:29.124Z,506.00
2023-06-12T09:15:29.123Z,509.00
2023-06-12T09:16:29.150Z,586.00
2023-06-12T09:17:29.135Z,639.00
2023-06-12T09:18:29.757Z,618.00
2023-06-12T09:19:29.080Z,595.00
2023-06-12T09:21:29.051Z,714.00
2023-06-12T09:22:29.049Z,635.00
2023-06-12T09:23:29.105Z,645.00
2023-06-12T09:24:29.130Z,694.00
2023-06-12T09:25:29.039Z,732.00
2023-06-12T09:26:29.021Z,757.00
2023-06-12T09:27:29.008Z,794.00
2023-06-12T09:28:29.009Z,735.00
2023-06-12T09:29:29.092Z,503.00
2023-06-12T09:30:29.010Z,453.00
2023-06-12T09:31:29.013Z,423.00
2023-06-12T09:32:29.065Z,408.00
2023-06-12T09:33:29.089Z,459.00
2023-06-12T09:34:29.083Z,476.00
2023-06-12T09:35:28.967Z,502.00
2023-06-12T09:36:28.953Z,486.00
2023-06-12T09:37:28.965Z,509.00
2023-06-12T09:38:29.101Z,505.00
2023-06-12T09:39:28.956Z,507.00
2023-06-12T09:40:28.950Z,570.00
2023-06-12T09:41:28.941Z,762.00
2023-06-12T09:42:28.934Z,1103.00
2023-06-12T09:43:28.927Z,1168.00
2023-06-12T09:44:28.891Z,1104.00
2023-06-12T09:45:28.895Z,1065.00
2023-06-12T09:46:28.909Z,1135.00
2023-06-12T09:47:28.921Z,1419.00
2023-06-12T09:48:28.877Z,1568.00
2023-06-12T09:49:28.890Z,1760.00
2023-06-12T09:50:28.859Z,1932.00
2023-06-12T09:51:28.876Z,2206.00
2023-06-12T09:52:28.852Z,2338.00
2023-06-12T09:53:29.264Z,2504.00
2023-06-12T09:54:28.848Z,2215.00
2023-06-12T09:55:28.838Z,1931.00
2023-06-12T09:56:28.857Z,1846.00
2023-06-12T09:57:28.851Z,1845.00
2023-06-12T09:58:28.841Z,1736.00
2023-06-12T09:59:28.816Z,1697.00
2023-06-12T10:00:28.799Z,1648.00
2023-06-12T10:01:28.970Z,1709.00
2023-06-12T10:02:28.838Z,1597.00
2023-06-12T10:03:29.662Z,1746.00
2023-06-12T10:04:28.795Z,1882.00
2023-06-12T10:05:28.763Z,1803.00
2023-06-12T10:06:28.779Z,1785.00
2023-06-12T10:07:28.776Z,1636.00
2023-06-12T10:08:29.111Z,1329.00
2023-06-12T10:09:28.850Z,1207.00
2023-06-12T10:10:28.903Z,1266.00
2023-06-12T10:11:28.955Z,1054.00
2023-06-12T10:12:29.006Z,876.00
2023-06-12T10:13:29.034Z,865.00
2023-06-12T10:14:29.125Z,662.00
2023-06-12T10:15:29.139Z,687.00
2023-06-12T10:16:29.208Z,910.00
2023-06-12T10:17:31.377Z,1163.00
2023-06-12T10:18:29.237Z,1274.00
2023-06-12T10:19:29.227Z,1491.00
2023-06-12T10:20:29.214Z,1674.00
2023-06-12T10:21:29.207Z,1843.00
2023-06-12T10:22:29.213Z,1977.00
2023-06-12T10:23:30.051Z,2191.00
2023-06-12T10:24:29.718Z,2198.00
2023-06-12T10:25:29.185Z,2252.00
2023-06-12T10:26:29.184Z,2398.00
2023-06-12T10:27:29.177Z,2705.00
2023-06-12T10:28:29.184Z,3122.00
2023-06-12T10:29:31.862Z,3070.00
2023-06-12T10:30:29.162Z,2635.00
2023-06-12T10:31:29.211Z,2644.00
2023-06-12T10:32:29.162Z,2789.00
2023-06-12T10:33:29.632Z,2817.00
2023-06-12T10:34:29.138Z,2892.00
2023-06-12T10:35:29.138Z,2971.00
2023-06-12T10:36:31.161Z,3012.00
2023-06-12T10:37:29.123Z,3089.00
2023-06-12T10:38:29.610Z,3186.00
2023-06-12T10:39:29.142Z,3262.00
2023-06-12T10:40:46.870Z,3353.00
2023-06-12T10:41:30.100Z,3356.00
2023-06-12T10:42:29.595Z,3365.00
2023-06-12T10:43:29.088Z,3373.00
2023-06-12T10:44:29.120Z,3409.00
2023-06-12T10:45:29.090Z,3471.00
2023-06-12T10:46:29.189Z,3500.00
2023-06-12T10:47:29.100Z,3503.00
2023-06-12T10:48:29.087Z,3405.00
2023-06-12T10:49:29.056Z,3332.00
2023-06-12T10:50:29.104Z,3348.00
2023-06-12T10:51:29.041Z,3290.00
2023-06-12T10:52:29.072Z,3449.00
2023-06-12T10:53:29.071Z,3532.00
2023-06-12T10:54:29.059Z,3610.00
2023-06-12T10:55:29.053Z,3713.00
2023-06-12T10:56:29.073Z,3729.00
2023-06-12T10:57:29.054Z,3706.00
2023-06-12T10:58:29.137Z,3652.00
2023-06-12T10:59:29.071Z,3567.00
2023-06-12T11:00:29.028Z,3497.00
2023-06-12T11:01:29.125Z,3625.00
2023-06-12T11:02:29.230Z,3773.00
2023-06-12T11:03:29.275Z,3822.00
2023-06-12T11:04:29.320Z,3855.00
2023-06-12T11:05:29.268Z,3833.00
2023-06-12T11:06:29.177Z,3836.00
2023-06-12T11:07:29.658Z,3836.00
2023-06-12T11:08:29.687Z,3887.00
2023-06-12T11:09:29.293Z,3912.00
2023-06-12T11:10:29.315Z,3922.00
2023-06-12T11:11:29.333Z,3876.00
2023-06-12T11:12:38.276Z,3643.00
2023-06-12T11:13:30.662Z,3025.00
2023-06-12T11:14:29.408Z,2919.00
2023-06-12T11:15:29.407Z,3067.00
2023-06-12T11:16:29.416Z,3100.00
2023-06-12T11:17:29.403Z,3161.00
2023-06-12T11:18:30.168Z,3195.00
2023-06-12T11:19:29.349Z,3265.00
2023-06-12T11:20:31.106Z,3368.00
2023-06-12T11:21:29.502Z,3421.00
2023-06-12T11:22:29.591Z,3477.00
2023-06-12T11:23:29.623Z,3519.00
2023-06-12T11:24:29.734Z,3503.00
2023-06-12T11:25:29.796Z,3137.00
2023-06-12T11:26:29.736Z,2673.00
2023-06-12T11:27:29.813Z,2665.00
2023-06-12T11:28:29.850Z,2658.00
2023-06-12T11:29:29.901Z,2252.00
2023-06-12T11:31:30.020Z,2217.00
2023-06-12T11:32:30.115Z,2624.00
2023-06-12T11:33:30.153Z,2914.00
2023-06-12T11:34:30.278Z,3113.00
2023-06-12T11:35:30.234Z,3220.00
2023-06-12T11:36:30.450Z,3325.00
2023-06-12T11:37:30.711Z,3472.00
2023-06-12T11:40:30.387Z,3931.00
2023-06-12T11:41:30.413Z,3953.00
2023-06-12T11:42:30.382Z,3994.00
2023-06-12T11:43:30.375Z,4088.00
2023-06-12T11:44:30.383Z,4222.00
2023-06-12T11:45:30.354Z,4308.00
2023-06-12T11:46:30.366Z,4385.00
2023-06-12T11:49:30.489Z,4447.00
2023-06-12T11:50:30.359Z,4472.00
2023-06-12T11:51:30.951Z,4527.00
2023-06-12T11:52:30.324Z,4631.00
2023-06-12T11:53:30.316Z,4817.00
2023-06-12T11:57:30.291Z,4853.00
2023-06-12T11:58:30.276Z,4869.00
2023-06-12T11:59:30.290Z,4885.00
2023-06-12T12:00:30.279Z,4903.00
2023-06-12T12:01:30.258Z,4948.00
2023-06-12T12:02:30.380Z,4943.00
2023-06-12T12:03:30.247Z,4978.00
2023-06-12T12:04:30.296Z,4961.00
2023-06-12T12:05:30.231Z,4903.00
2023-06-12T12:06:30.236Z,4907.00
2023-06-12T12:07:30.237Z,4916.00
2023-06-12T12:08:30.236Z,4898.00
2023-06-12T12:09:30.214Z,4897.00
2023-06-12T12:10:30.219Z,4862.00
2023-06-12T12:11:30.221Z,4907.00
2023-06-12T12:12:30.192Z,4902.00
2023-06-12T12:13:30.205Z,4910.00
2023-06-12T12:14:30.200Z,4863.00
2023-06-12T12:15:30.259Z,4819.00
2023-06-12T12:16:30.610Z,4799.00
2023-06-12T12:17:30.267Z,4812.00
2023-06-12T12:18:30.164Z,4838.00
2023-06-12T12:19:30.174Z,4824.00
2023-06-12T12:20:30.140Z,4773.00
2023-06-12T12:21:30.144Z,4783.00
2023-06-12T12:22:30.136Z,4807.00
2023-06-12T12:23:30.163Z,4762.00
2023-06-12T12:24:30.204Z,4780.00
2023-06-12T12:25:30.135Z,4771.00
2023-06-12T12:26:30.126Z,4802.00
2023-06-12T12:27:30.125Z,4833.00
2023-06-12T12:28:30.106Z,4797.00
2023-06-12T12:29:30.099Z,4808.00